首页
METAR-TAF:

METAR-TAF

机场 :

图克托亚图克, 西北特區, 加拿大

纬度: 69-27N, 经度: 133-01W, 海拔: 5米

当前天气观测

该预报发布于16分钟前的16:00 UTC
风速9节,风向东转东南
温度 15°C
湿度 88%
气压 1020 hPa
能見度: 24.1公里
少量云层高于9000英尺
散云层高于23000英尺

METAR: CYUB 211600Z 11009KT 15SM FEW090 SCT230 15/13 A3013 RMK AC1CI2 SLP207

时间: 10:16 (16:16 UTC)

预报

该预报发布于1小时和36分钟前的14:40 UTC
预报有效从21日的 15点(UTC)到 22日的 03点(UTC)
风速7节,风向东转东南
能見度: 10公里
少量云层高于1000英尺
少量云层高于9000英尺
散云层高于22000英尺
成为
从 22日的 01点(UTC)到 22日的 03点(UTC)
风速7节,风向

TAF: CYUB 211440Z 2115/2203 11007KT P6SM FEW010 FEW090 SCT220 BECMG 2201/2203 35007KT RMK NXT FCST BY 211900Z

超过4000个机场的气象观测和天气预报(METAR&TAF报告)。

可查询的气象台以黄色和红色小点在地图上表示。

将鼠标移到小点上方,可查看气象台名称。

然后点击查看天气观测和预报。

如需切换地图:点击带黑十字的绿色按钮放大地图;点击带横线的绿色按钮缩小地图;或者点击绿色箭头查看邻近地区的地图。


METAR-TAF: